sensor_id;sensor_type;location;lat;lon;timestamp;pressure;altitude;pressure_sealevel;temperature;humidity
4745;BME280;2386;42.138;24.746;2023-09-18T00:01:24;100095.47;;;22.42;92.32
4745;BME280;2386;42.138;24.746;2023-09-18T00:07:11;100088.75;;;22.48;92.17
4745;BME280;2386;42.138;24.746;2023-09-18T00:09:36;100085.22;;;22.42;91.80
4745;BME280;2386;42.138;24.746;2023-09-18T00:12:02;100097.56;;;22.50;91.54
4745;BME280;2386;42.138;24.746;2023-09-18T00:17:49;100093.81;;;22.41;92.58
4745;BME280;2386;42.138;24.746;2023-09-18T00:20:14;100084.94;;;22.44;91.96
4745;BME280;2386;42.138;24.746;2023-09-18T00:22:43;100088.06;;;22.37;93.03
4745;BME280;2386;42.138;24.746;2023-09-18T00:25:08;100073.34;;;22.23;93.62
4745;BME280;2386;42.138;24.746;2023-09-18T00:27:34;100076.94;;;22.23;93.08
4745;BME280;2386;42.138;24.746;2023-09-18T00:30:01;100091.88;;;22.41;92.58
4745;BME280;2386;42.138;24.746;2023-09-18T00:32:28;100092.84;;;22.32;93.44
4745;BME280;2386;42.138;24.746;2023-09-18T00:34:53;100090.91;;;22.32;93.25
4745;BME280;2386;42.138;24.746;2023-09-18T00:37:18;100079.72;;;22.23;93.41
4745;BME280;2386;42.138;24.746;2023-09-18T00:39:44;100095.00;;;22.35;94.42
4745;BME280;2386;42.138;24.746;2023-09-18T00:42:09;100076.94;;;22.23;95.26
4745;BME280;2386;42.138;24.746;2023-09-18T00:44:39;100082.84;;;22.17;96.38
4745;BME280;2386;42.138;24.746;2023-09-18T00:47:07;100077.31;;;22.17;95.64
4745;BME280;2386;42.138;24.746;2023-09-18T00:49:33;100091.06;;;22.22;94.85
4745;BME280;2386;42.138;24.746;2023-09-18T00:51:59;100091.06;;;22.22;94.27
4745;BME280;2386;42.138;24.746;2023-09-18T00:54:25;100090.66;;;22.28;94.08
4745;BME280;2386;42.138;24.746;2023-09-18T00:56:51;100088.34;;;22.17;94.93
4745;BME280;2386;42.138;24.746;2023-09-18T00:59:20;100083.94;;;22.16;95.46
4745;BME280;2386;42.138;24.746;2023-09-18T01:01:48;100077.59;;;22.15;94.81
4745;BME280;2386;42.138;24.746;2023-09-18T01:04:15;100089.41;;;22.21;94.44
4745;BME280;2386;42.138;24.746;2023-09-18T01:06:41;100075.38;;;22.17;93.91
4745;BME280;2386;42.138;24.746;2023-09-18T01:09:07;100079.59;;;22.28;92.70
4745;BME280;2386;42.138;24.746;2023-09-18T01:17:19;100093.53;;;22.23;92.73
4745;BME280;2386;42.138;24.746;2023-09-18T01:19:46;100091.41;;;22.15;92.82
4745;BME280;2386;42.138;24.746;2023-09-18T01:22:14;100091.34;;;22.20;92.36
4745;BME280;2386;42.138;24.746;2023-09-18T01:24:40;100077.06;;;22.13;92.75
4745;BME280;2386;42.138;24.746;2023-09-18T01:27:09;100092.41;;;22.24;92.19
4745;BME280;2386;42.138;24.746;2023-09-18T01:29:35;100080.00;;;22.22;91.19
4745;BME280;2386;42.138;24.746;2023-09-18T01:32:01;100083.88;;;22.21;91.52
4745;BME280;2386;42.138;24.746;2023-09-18T01:34:30;100064.50;;;22.02;92.76
4745;BME280;2386;42.138;24.746;2023-09-18T01:36:57;100077.81;;;21.95;94.09
4745;BME280;2386;42.138;24.746;2023-09-18T01:39:23;100082.81;;;21.93;94.49
4745;BME280;2386;42.138;24.746;2023-09-18T01:41:52;100071.41;;;22.00;93.86
4745;BME280;2386;42.138;24.746;2023-09-18T01:44:18;100080.72;;;22.09;93.63
4745;BME280;2386;42.138;24.746;2023-09-18T01:46:44;100077.44;;;22.07;93.39
4745;BME280;2386;42.138;24.746;2023-09-18T01:49:09;100087.31;;;22.13;93.63
4745;BME280;2386;42.138;24.746;2023-09-18T01:51:35;100075.19;;;22.09;94.00
4745;BME280;2386;42.138;24.746;2023-09-18T01:54:00;100080.59;;;21.95;94.07
4745;BME280;2386;42.138;24.746;2023-09-18T01:56:26;100080.00;;;21.98;94.53
4745;BME280;2386;42.138;24.746;2023-09-18T01:58:52;100078.84;;;22.04;93.71
4745;BME280;2386;42.138;24.746;2023-09-18T02:01:18;100083.88;;;21.97;94.97
4745;BME280;2386;42.138;24.746;2023-09-18T02:03:43;100092.69;;;21.99;94.68
4745;BME280;2386;42.138;24.746;2023-09-18T02:06:11;100092.13;;;22.02;93.87
4745;BME280;2386;42.138;24.746;2023-09-18T02:08:36;100084.22;;;21.90;94.54
4745;BME280;2386;42.138;24.746;2023-09-18T02:11:02;100078.59;;;22.01;93.92
4745;BME280;2386;42.138;24.746;2023-09-18T02:13:30;100076.94;;;22.00;93.04
4745;BME280;2386;42.138;24.746;2023-09-18T02:15:56;100104.56;;;22.00;92.74
4745;BME280;2386;42.138;24.746;2023-09-18T02:18:21;100094.09;;;21.73;94.25
4745;BME280;2386;42.138;24.746;2023-09-18T02:20:47;100089.53;;;21.87;94.31
4745;BME280;2386;42.138;24.746;2023-09-18T02:23:15;100102.16;;;21.93;94.72
4745;BME280;2386;42.138;24.746;2023-09-18T02:25:40;100087.53;;;21.92;93.32
4745;BME280;2386;42.138;24.746;2023-09-18T02:28:06;100100.69;;;22.01;94.09
4745;BME280;2386;42.138;24.746;2023-09-18T02:30:32;100091.88;;;21.98;92.93
4745;BME280;2386;42.138;24.746;2023-09-18T02:32:57;100102.91;;;22.04;93.55
4745;BME280;2386;42.138;24.746;2023-09-18T02:35:25;100105.16;;;21.96;94.52
4745;BME280;2386;42.138;24.746;2023-09-18T02:37:50;100102.09;;;21.98;93.72
4745;BME280;2386;42.138;24.746;2023-09-18T02:40:15;100100.44;;;21.97;93.86
4745;BME280;2386;42.138;24.746;2023-09-18T02:42:41;100086.16;;;21.90;94.08
4745;BME280;2386;42.138;24.746;2023-09-18T02:45:06;100087.81;;;21.91;93.45
4745;BME280;2386;42.138;24.746;2023-09-18T02:47:33;100105.50;;;21.90;94.63
4745;BME280;2386;42.138;24.746;2023-09-18T02:49:59;100095.50;;;21.94;94.52
4745;BME280;2386;42.138;24.746;2023-09-18T02:52:24;100096.69;;;21.88;93.48
4745;BME280;2386;42.138;24.746;2023-09-18T02:54:50;100088.47;;;21.83;93.06
4745;BME280;2386;42.138;24.746;2023-09-18T02:57:15;100086.34;;;21.75;94.57
4745;BME280;2386;42.138;24.746;2023-09-18T03:03:03;100116.41;;;22.05;93.49
4745;BME280;2386;42.138;24.746;2023-09-18T03:05:31;100104.56;;;22.00;92.76
4745;BME280;2386;42.138;24.746;2023-09-18T03:07:57;100104.34;;;21.96;93.46
4745;BME280;2386;42.138;24.746;2023-09-18T03:13:44;100110.91;;;22.00;93.35
4745;BME280;2386;42.138;24.746;2023-09-18T03:16:11;100108.81;;;21.92;93.68
4745;BME280;2386;42.138;24.746;2023-09-18T03:18:37;100107.44;;;21.89;92.95
4745;BME280;2386;42.138;24.746;2023-09-18T03:21:02;100103.50;;;21.95;92.74
4745;BME280;2386;42.138;24.746;2023-09-18T03:23:28;100118.66;;;21.98;93.60
4745;BME280;2386;42.138;24.746;2023-09-18T03:25:53;100120.00;;;22.06;92.36
4745;BME280;2386;42.138;24.746;2023-09-18T03:28:19;100096.69;;;21.88;93.76
4745;BME280;2386;42.138;24.746;2023-09-18T03:30:44;100105.97;;;21.97;92.85
4745;BME280;2386;42.138;24.746;2023-09-18T03:33:10;100095.88;;;21.87;93.43
4745;BME280;2386;42.138;24.746;2023-09-18T03:35:46;100115.31;;;22.01;93.49
4745;BME280;2386;42.138;24.746;2023-09-18T03:38:14;100099.91;;;21.95;92.94
4745;BME280;2386;42.138;24.746;2023-09-18T03:44:02;100114.44;;;21.82;94.14
4745;BME280;2386;42.138;24.746;2023-09-18T03:46:28;100099.97;;;21.66;94.93
4745;BME280;2386;42.138;24.746;2023-09-18T03:48:53;100099.38;;;21.69;94.67
4745;BME280;2386;42.138;24.746;2023-09-18T03:51:20;100101.50;;;21.77;94.17
4745;BME280;2386;42.138;24.746;2023-09-18T03:53:45;100097.84;;;21.58;94.91
4745;BME280;2386;42.138;24.746;2023-09-18T03:56:11;100111.66;;;21.58;95.14
4745;BME280;2386;42.138;24.746;2023-09-18T03:58:37;100109.91;;;21.67;94.82
4745;BME280;2386;42.138;24.746;2023-09-18T04:01:02;100102.00;;;21.55;94.70
4745;BME280;2386;42.138;24.746;2023-09-18T04:03:28;100112.72;;;21.62;94.26
4745;BME280;2386;42.138;24.746;2023-09-18T04:05:54;100118.91;;;21.54;94.44
4745;BME280;2386;42.138;24.746;2023-09-18T04:08:20;100106.88;;;21.63;93.91
4745;BME280;2386;42.138;24.746;2023-09-18T04:10:47;100117.34;;;21.67;94.59
4745;BME280;2386;42.138;24.746;2023-09-18T04:13:13;100115.13;;;21.69;93.97
4745;BME280;2386;42.138;24.746;2023-09-18T04:15:39;100115.38;;;21.72;93.54
4745;BME280;2386;42.138;24.746;2023-09-18T04:18:05;100133.19;;;21.85;93.88
4745;BME280;2386;42.138;24.746;2023-09-18T04:20:31;100128.28;;;21.77;94.11
4745;BME280;2386;42.138;24.746;2023-09-18T04:23:19;100124.31;;;21.88;93.07
4745;BME280;2386;42.138;24.746;2023-09-18T04:25:45;100120.50;;;21.84;92.79
4745;BME280;2386;42.138;24.746;2023-09-18T04:28:18;100132.72;;;21.78;93.39
4745;BME280;2386;42.138;24.746;2023-09-18T04:33:45;100118.53;;;21.60;94.76
4745;BME280;2386;42.138;24.746;2023-09-18T04:36:11;100122.41;;;21.59;94.96
4745;BME280;2386;42.138;24.746;2023-09-18T04:41:11;100120.06;;;21.72;94.66
4745;BME280;2386;42.138;24.746;2023-09-18T04:43:37;100123.59;;;21.77;94.63
4745;BME280;2386;42.138;24.746;2023-09-18T04:46:07;100119.97;;;21.82;94.09
4745;BME280;2386;42.138;24.746;2023-09-18T04:48:32;100112.97;;;21.89;92.55
4745;BME280;2386;42.138;24.746;2023-09-18T04:50:59;100116.78;;;21.93;92.24
4745;BME280;2386;42.138;24.746;2023-09-18T05:03:45;100119.47;;;21.75;92.14
4745;BME280;2386;42.138;24.746;2023-09-18T05:06:11;100125.13;;;21.88;92.81
4745;BME280;2386;42.138;24.746;2023-09-18T05:08:54;100115.66;;;21.71;91.13
4745;BME280;2386;42.138;24.746;2023-09-18T05:11:20;100121.66;;;21.78;92.69
4745;BME280;2386;42.138;24.746;2023-09-18T05:13:46;100127.34;;;21.62;92.97
4745;BME280;2386;42.138;24.746;2023-09-18T05:16:34;100124.28;;;21.64;93.46
4745;BME280;2386;42.138;24.746;2023-09-18T05:22:32;100133.69;;;21.63;92.62
4745;BME280;2386;42.138;24.746;2023-09-18T05:38:33;100111.09;;;21.85;89.77
4745;BME280;2386;42.138;24.746;2023-09-18T05:40:58;100114.84;;;21.94;90.57
4745;BME280;2386;42.138;24.746;2023-09-18T05:43:23;100118.59;;;22.08;90.02
4745;BME280;2386;42.138;24.746;2023-09-18T05:45:49;100103.53;;;22.19;88.92
4745;BME280;2386;42.138;24.746;2023-09-18T05:48:17;100107.72;;;22.36;87.79
4745;BME280;2386;42.138;24.746;2023-09-18T05:50:43;100111.81;;;22.38;85.78
4745;BME280;2386;42.138;24.746;2023-09-18T05:53:18;100113.25;;;22.36;85.29
4745;BME280;2386;42.138;24.746;2023-09-18T06:19:03;100136.72;;;22.81;81.29
4745;BME280;2386;42.138;24.746;2023-09-18T06:21:29;100136.44;;;22.77;81.59
4745;BME280;2386;42.138;24.746;2023-09-18T06:23:55;100144.56;;;22.92;81.72
4745;BME280;2386;42.138;24.746;2023-09-18T06:26:20;100150.94;;;23.07;80.17
4745;BME280;2386;42.138;24.746;2023-09-18T06:28:46;100141.75;;;23.11;78.91
4745;BME280;2386;42.138;24.746;2023-09-18T06:31:12;100144.28;;;23.08;79.18
4745;BME280;2386;42.138;24.746;2023-09-18T06:33:37;100148.72;;;23.09;79.14
4745;BME280;2386;42.138;24.746;2023-09-18T06:36:03;100145.41;;;23.07;78.55
4745;BME280;2386;42.138;24.746;2023-09-18T06:38:28;100149.88;;;22.89;80.03
4745;BME280;2386;42.138;24.746;2023-09-18T06:40:54;100152.34;;;22.90;80.28
4745;BME280;2386;42.138;24.746;2023-09-18T06:43:20;100158.41;;;22.92;81.11
4745;BME280;2386;42.138;24.746;2023-09-18T06:45:46;100143.06;;;22.81;80.92
4745;BME280;2386;42.138;24.746;2023-09-18T06:48:11;100148.59;;;22.81;81.57
4745;BME280;2386;42.138;24.746;2023-09-18T06:50:36;100149.66;;;22.85;80.77
4745;BME280;2386;42.138;24.746;2023-09-18T06:53:03;100141.34;;;22.85;81.59
4745;BME280;2386;42.138;24.746;2023-09-18T06:55:29;100152.84;;;22.92;80.60
4745;BME280;2386;42.138;24.746;2023-09-18T06:57:55;100146.19;;;22.93;80.67
4745;BME280;2386;42.138;24.746;2023-09-18T07:00:20;100144.28;;;23.08;79.30
4745;BME280;2386;42.138;24.746;2023-09-18T07:02:46;100144.44;;;23.16;78.87
4745;BME280;2386;42.138;24.746;2023-09-18T07:08:33;100143.06;;;23.33;76.15
4745;BME280;2386;42.138;24.746;2023-09-18T07:10:59;100133.34;;;23.35;75.92
4745;BME280;2386;42.138;24.746;2023-09-18T07:13:24;100141.78;;;23.44;75.42
4745;BME280;2386;42.138;24.746;2023-09-18T07:19:12;100138.03;;;23.53;75.07
4745;BME280;2386;42.138;24.746;2023-09-18T07:21:41;100144.22;;;23.64;75.06
4745;BME280;2386;42.138;24.746;2023-09-18T07:24:07;100143.72;;;23.76;75.18
4745;BME280;2386;42.138;24.746;2023-09-18T07:26:33;100138.66;;;23.78;73.42
4745;BME280;2386;42.138;24.746;2023-09-18T07:28:59;100137.56;;;23.92;73.70
4745;BME280;2386;42.138;24.746;2023-09-18T07:31:24;100141.88;;;24.12;72.52
4745;BME280;2386;42.138;24.746;2023-09-18T07:33:50;100145.28;;;24.23;70.98
4745;BME280;2386;42.138;24.746;2023-09-18T07:36:16;100144.91;;;24.30;69.41
4745;BME280;2386;42.138;24.746;2023-09-18T07:38:42;100137.59;;;24.34;68.73
4745;BME280;2386;42.138;24.746;2023-09-18T07:41:09;100143.66;;;24.36;67.35
4745;BME280;2386;42.138;24.746;2023-09-18T07:43:34;100156.28;;;24.42;68.43
4745;BME280;2386;42.138;24.746;2023-09-18T07:45:59;100150.94;;;24.45;68.69
4745;BME280;2386;42.138;24.746;2023-09-18T07:48:27;100151.16;;;24.49;67.65
4745;BME280;2386;42.138;24.746;2023-09-18T07:50:52;100149.50;;;24.48;67.18
4745;BME280;2386;42.138;24.746;2023-09-18T07:53:19;100143.25;;;24.29;67.25
4745;BME280;2386;42.138;24.746;2023-09-18T07:55:45;100141.06;;;24.12;67.29
4745;BME280;2386;42.138;24.746;2023-09-18T07:58:10;100141.16;;;24.07;67.24
4745;BME280;2386;42.138;24.746;2023-09-18T08:00:36;100141.47;;;24.05;67.87
4745;BME280;2386;42.138;24.746;2023-09-18T08:03:02;100145.06;;;24.19;68.31
4745;BME280;2386;42.138;24.746;2023-09-18T08:05:27;100142.13;;;24.30;69.56
4745;BME280;2386;42.138;24.746;2023-09-18T08:07:54;100140.78;;;24.41;71.38
4745;BME280;2386;42.138;24.746;2023-09-18T08:10:23;100141.81;;;24.31;67.65
4745;BME280;2386;42.138;24.746;2023-09-18T08:12:48;100140.56;;;24.51;67.70
4745;BME280;2386;42.138;24.746;2023-09-18T08:15:16;100130.84;;;24.62;70.53
4745;BME280;2386;42.138;24.746;2023-09-18T08:17:42;100132.69;;;24.67;66.13
4745;BME280;2386;42.138;24.746;2023-09-18T08:20:08;100133.63;;;24.62;64.29
4745;BME280;2386;42.138;24.746;2023-09-18T08:22:39;100126.31;;;24.66;67.81
4745;BME280;2386;42.138;24.746;2023-09-18T08:25:06;100123.13;;;24.73;65.91
4745;BME280;2386;42.138;24.746;2023-09-18T08:27:37;100123.41;;;24.85;68.98
4745;BME280;2386;42.138;24.746;2023-09-18T08:30:05;100123.19;;;24.81;67.36
4745;BME280;2386;42.138;24.746;2023-09-18T08:32:31;100114.63;;;24.92;65.89
4745;BME280;2386;42.138;24.746;2023-09-18T08:34:59;100121.63;;;25.03;63.52
4745;BME280;2386;42.138;24.746;2023-09-18T08:37:34;100125.97;;;25.17;69.46
4745;BME280;2386;42.138;24.746;2023-09-18T08:40:10;100112.94;;;25.27;69.97
4745;BME280;2386;42.138;24.746;2023-09-18T08:42:50;100105.13;;;25.29;68.43
4745;BME280;2386;42.138;24.746;2023-09-18T08:48:02;100125.19;;;25.48;66.96
4745;BME280;2386;42.138;24.746;2023-09-18T08:50:28;100114.53;;;25.41;61.74
4745;BME280;2386;42.138;24.746;2023-09-18T08:52:55;100120.59;;;25.43;62.27
4745;BME280;2386;42.138;24.746;2023-09-18T08:55:23;100131.19;;;25.41;62.75
4745;BME280;2386;42.138;24.746;2023-09-18T08:57:49;100119.50;;;25.31;61.41
4745;BME280;2386;42.138;24.746;2023-09-18T09:00:15;100125.00;;;25.44;62.39
4745;BME280;2386;42.138;24.746;2023-09-18T09:02:45;100117.50;;;25.45;69.38
4745;BME280;2386;42.138;24.746;2023-09-18T09:05:14;100117.16;;;25.46;65.46
4745;BME280;2386;42.138;24.746;2023-09-18T09:07:39;100115.25;;;25.55;70.47
4745;BME280;2386;42.138;24.746;2023-09-18T09:10:05;100115.44;;;25.59;69.90
4745;BME280;2386;42.138;24.746;2023-09-18T09:12:53;100106.50;;;25.40;60.71
4745;BME280;2386;42.138;24.746;2023-09-18T09:15:24;100107.50;;;25.44;60.56
4745;BME280;2386;42.138;24.746;2023-09-18T09:17:52;100103.38;;;25.64;62.15
4745;BME280;2386;42.138;24.746;2023-09-18T09:20:18;100100.81;;;25.67;65.93
4745;BME280;2386;42.138;24.746;2023-09-18T09:22:44;100097.22;;;25.44;59.46
4745;BME280;2386;42.138;24.746;2023-09-18T09:25:25;100103.72;;;25.40;58.27
4745;BME280;2386;42.138;24.746;2023-09-18T09:27:52;100099.22;;;25.52;66.77
4745;BME280;2386;42.138;24.746;2023-09-18T09:30:20;100105.78;;;25.57;61.53
4745;BME280;2386;42.138;24.746;2023-09-18T09:32:53;100099.72;;;25.54;64.87
4745;BME280;2386;42.138;24.746;2023-09-18T09:37:50;100108.06;;;25.54;59.17
4745;BME280;2386;42.138;24.746;2023-09-18T09:40:19;100109.72;;;25.55;60.96
4745;BME280;2386;42.138;24.746;2023-09-18T09:42:45;100100.03;;;25.53;57.16
4745;BME280;2386;42.138;24.746;2023-09-18T09:45:13;100102.88;;;25.62;60.65
4745;BME280;2386;42.138;24.746;2023-09-18T09:47:40;100091.19;;;25.73;63.51
4745;BME280;2386;42.138;24.746;2023-09-18T09:50:07;100092.72;;;25.88;57.46
4745;BME280;2386;42.138;24.746;2023-09-18T09:52:34;100094.56;;;26.01;59.80
4745;BME280;2386;42.138;24.746;2023-09-18T09:55:00;100093.94;;;26.13;59.04
4745;BME280;2386;42.138;24.746;2023-09-18T09:57:26;100088.06;;;26.23;62.42
4745;BME280;2386;42.138;24.746;2023-09-18T09:59:51;100077.16;;;26.35;54.95
4745;BME280;2386;42.138;24.746;2023-09-18T10:02:19;100068.84;;;26.44;60.70
4745;BME280;2386;42.138;24.746;2023-09-18T10:04:49;100071.28;;;26.45;55.69
4745;BME280;2386;42.138;24.746;2023-09-18T10:07:16;100064.75;;;26.59;59.29
4745;BME280;2386;42.138;24.746;2023-09-18T10:09:44;100068.84;;;26.61;53.45
4745;BME280;2386;42.138;24.746;2023-09-18T10:12:11;100071.31;;;26.63;52.20
4745;BME280;2386;42.138;24.746;2023-09-18T10:14:37;100070.63;;;26.83;53.13
4745;BME280;2386;42.138;24.746;2023-09-18T10:17:18;100059.34;;;26.97;50.63
4745;BME280;2386;42.138;24.746;2023-09-18T10:20:07;100063.28;;;27.13;49.57
4745;BME280;2386;42.138;24.746;2023-09-18T10:22:39;100070.59;;;27.35;53.21
4745;BME280;2386;42.138;24.746;2023-09-18T10:27:45;100060.19;;;27.53;46.32
4745;BME280;2386;42.138;24.746;2023-09-18T10:30:16;100041.91;;;27.34;47.32
4745;BME280;2386;42.138;24.746;2023-09-18T10:42:59;100041.63;;;27.19;45.98
4745;BME280;2386;42.138;24.746;2023-09-18T10:45:27;100039.34;;;27.21;46.50
4745;BME280;2386;42.138;24.746;2023-09-18T10:47:53;100033.28;;;27.10;45.62
4745;BME280;2386;42.138;24.746;2023-09-18T10:50:24;100035.91;;;27.06;49.79
4745;BME280;2386;42.138;24.746;2023-09-18T10:52:56;100029.84;;;26.96;49.23
4745;BME280;2386;42.138;24.746;2023-09-18T10:55:22;100005.78;;;26.82;49.81
4745;BME280;2386;42.138;24.746;2023-09-18T10:57:54;100025.59;;;26.90;50.51
4745;BME280;2386;42.138;24.746;2023-09-18T11:00:21;100028.38;;;26.90;47.27
4745;BME280;2386;42.138;24.746;2023-09-18T11:02:53;100023.78;;;26.94;47.88
4745;BME280;2386;42.138;24.746;2023-09-18T11:05:29;100023.94;;;26.89;46.91
4745;BME280;2386;42.138;24.746;2023-09-18T11:10:59;100013.13;;;26.96;47.16
4745;BME280;2386;42.138;24.746;2023-09-18T11:13:30;100007.56;;;26.96;48.79
4745;BME280;2386;42.138;24.746;2023-09-18T11:16:45;100010.88;;;26.98;45.59
4745;BME280;2386;42.138;24.746;2023-09-18T11:18:50;100001.84;;;27.01;47.72
4745;BME280;2386;42.138;24.746;2023-09-18T11:21:17;100004.16;;;26.99;44.89
4745;BME280;2386;42.138;24.746;2023-09-18T11:27:05;99997.44;;;27.00;44.80
4745;BME280;2386;42.138;24.746;2023-09-18T11:29:36;99984.47;;;26.95;44.88
4745;BME280;2386;42.138;24.746;2023-09-18T11:32:02;99988.25;;;26.99;44.29
4745;BME280;2386;42.138;24.746;2023-09-18T11:34:38;100001.69;;;27.06;44.78
4745;BME280;2386;42.138;24.746;2023-09-18T11:37:35;99989.22;;;27.12;44.95
4745;BME280;2386;42.138;24.746;2023-09-18T11:40:01;99997.72;;;27.15;47.58
4745;BME280;2386;42.138;24.746;2023-09-18T11:42:26;100004.13;;;27.16;43.36
4745;BME280;2386;42.138;24.746;2023-09-18T11:44:54;99995.28;;;27.05;43.60
4745;BME280;2386;42.138;24.746;2023-09-18T11:47:24;99990.84;;;27.13;45.00
4745;BME280;2386;42.138;24.746;2023-09-18T11:49:58;99985.31;;;27.04;43.60
4745;BME280;2386;42.138;24.746;2023-09-18T11:52:29;99987.72;;;27.14;43.56
4745;BME280;2386;42.138;24.746;2023-09-18T11:54:57;99976.91;;;27.13;43.93
4745;BME280;2386;42.138;24.746;2023-09-18T11:57:23;99979.03;;;27.16;44.37
4745;BME280;2386;42.138;24.746;2023-09-18T11:59:50;99979.34;;;27.23;46.11
4745;BME280;2386;42.138;24.746;2023-09-18T12:02:30;99973.75;;;27.32;45.17
4745;BME280;2386;42.138;24.746;2023-09-18T12:05:05;99973.53;;;27.45;43.49
4745;BME280;2386;42.138;24.746;2023-09-18T12:07:31;99969.66;;;27.59;42.65
4745;BME280;2386;42.138;24.746;2023-09-18T12:09:57;99970.09;;;27.78;42.70
4745;BME280;2386;42.138;24.746;2023-09-18T12:12:22;99967.88;;;27.92;43.40
4745;BME280;2386;42.138;24.746;2023-09-18T12:14:48;99967.47;;;28.02;42.09
4745;BME280;2386;42.138;24.746;2023-09-18T12:17:15;99963.81;;;28.10;41.97
4745;BME280;2386;42.138;24.746;2023-09-18T12:19:53;99963.13;;;28.13;43.43
4745;BME280;2386;42.138;24.746;2023-09-18T12:22:29;99958.91;;;28.07;41.36
4745;BME280;2386;42.138;24.746;2023-09-18T12:25:12;99959.50;;;28.22;42.40
4745;BME280;2386;42.138;24.746;2023-09-18T12:27:39;99958.38;;;28.35;44.94
4745;BME280;2386;42.138;24.746;2023-09-18T12:30:05;99955.63;;;28.47;43.06
4745;BME280;2386;42.138;24.746;2023-09-18T12:32:31;99955.09;;;28.54;43.69
4745;BME280;2386;42.138;24.746;2023-09-18T12:34:58;99948.75;;;28.65;40.24
4745;BME280;2386;42.138;24.746;2023-09-18T12:37:23;99953.53;;;29.10;40.29
4745;BME280;2386;42.138;24.746;2023-09-18T12:39:49;99947.19;;;30.91;39.74
4745;BME280;2386;42.138;24.746;2023-09-18T12:42:18;99952.25;;;33.34;32.74
4745;BME280;2386;42.138;24.746;2023-09-18T12:44:46;99947.16;;;35.27;29.58
4745;BME280;2386;42.138;24.746;2023-09-18T12:47:12;99956.69;;;37.04;26.51
4745;BME280;2386;42.138;24.746;2023-09-18T12:49:40;99960.59;;;38.45;24.87
4745;BME280;2386;42.138;24.746;2023-09-18T12:52:12;99945.44;;;39.88;22.87
4745;BME280;2386;42.138;24.746;2023-09-18T12:54:50;99945.31;;;40.97;22.46
4745;BME280;2386;42.138;24.746;2023-09-18T13:20:30;99929.34;;;45.74;16.39
4745;BME280;2386;42.138;24.746;2023-09-18T13:22:58;99919.09;;;45.86;16.46
4745;BME280;2386;42.138;24.746;2023-09-18T13:25:28;99939.66;;;46.06;15.80
4745;BME280;2386;42.138;24.746;2023-09-18T13:27:54;99933.19;;;45.46;16.02
4745;BME280;2386;42.138;24.746;2023-09-18T13:30:23;99934.03;;;45.81;16.20
4745;BME280;2386;42.138;24.746;2023-09-18T13:32:49;99933.88;;;45.63;16.56
4745;BME280;2386;42.138;24.746;2023-09-18T13:35:16;99931.09;;;45.72;15.53
4745;BME280;2386;42.138;24.746;2023-09-18T13:37:41;99925.00;;;46.26;16.19
4745;BME280;2386;42.138;24.746;2023-09-18T13:40:08;99931.63;;;45.79;16.16
4745;BME280;2386;42.138;24.746;2023-09-18T13:42:34;99915.97;;;43.74;17.59
4745;BME280;2386;42.138;24.746;2023-09-18T13:45:01;99916.78;;;41.27;19.27
4745;BME280;2386;42.138;24.746;2023-09-18T13:47:27;99905.25;;;38.89;21.46
4745;BME280;2386;42.138;24.746;2023-09-18T13:49:53;99902.91;;;37.83;22.73
4745;BME280;2386;42.138;24.746;2023-09-18T13:52:22;99901.94;;;35.67;24.99
4745;BME280;2386;42.138;24.746;2023-09-18T13:54:55;99888.56;;;35.09;25.91
4745;BME280;2386;42.138;24.746;2023-09-18T13:57:37;99892.75;;;33.85;27.21
4745;BME280;2386;42.138;24.746;2023-09-18T14:00:03;99883.69;;;33.19;28.10
4745;BME280;2386;42.138;24.746;2023-09-18T14:02:36;99877.50;;;32.26;29.04
4745;BME280;2386;42.138;24.746;2023-09-18T14:05:04;99880.34;;;31.72;29.69
4745;BME280;2386;42.138;24.746;2023-09-18T14:07:36;99875.09;;;31.19;30.82
4745;BME280;2386;42.138;24.746;2023-09-18T14:10:05;99876.03;;;30.95;30.96
4745;BME280;2386;42.138;24.746;2023-09-18T14:12:32;99878.91;;;30.67;31.15
4745;BME280;2386;42.138;24.746;2023-09-18T14:14:57;99855.88;;;29.90;32.52
4745;BME280;2386;42.138;24.746;2023-09-18T14:17:23;99853.06;;;29.90;32.43
4745;BME280;2386;42.138;24.746;2023-09-18T14:19:48;99863.66;;;29.69;32.72
4745;BME280;2386;42.138;24.746;2023-09-18T14:22:35;99867.16;;;29.54;32.83
4745;BME280;2386;42.138;24.746;2023-09-18T14:25:02;99848.97;;;29.23;32.47
4745;BME280;2386;42.138;24.746;2023-09-18T14:27:31;99853.16;;;29.05;32.57
4745;BME280;2386;42.138;24.746;2023-09-18T14:29:56;99861.19;;;29.06;32.98
4745;BME280;2386;42.138;24.746;2023-09-18T14:32:25;99868.31;;;29.04;33.59
4745;BME280;2386;42.138;24.746;2023-09-18T14:34:51;99847.81;;;28.88;33.41
4745;BME280;2386;42.138;24.746;2023-09-18T14:37:16;99851.59;;;28.71;33.01
4745;BME280;2386;42.138;24.746;2023-09-18T14:49:51;99843.91;;;28.23;34.07
4745;BME280;2386;42.138;24.746;2023-09-18T14:52:17;99830.84;;;28.14;35.00
4745;BME280;2386;42.138;24.746;2023-09-18T14:54:43;99844.59;;;28.20;35.19
4745;BME280;2386;42.138;24.746;2023-09-18T14:57:09;99843.59;;;28.03;33.63
4745;BME280;2386;42.138;24.746;2023-09-18T14:59:35;99852.91;;;28.07;34.55
4745;BME280;2386;42.138;24.746;2023-09-18T15:02:00;99844.41;;;28.04;34.06
4745;BME280;2386;42.138;24.746;2023-09-18T15:04:26;99844.63;;;27.99;34.42
4745;BME280;2386;42.138;24.746;2023-09-18T15:06:51;99847.75;;;27.97;34.76
4745;BME280;2386;42.138;24.746;2023-09-18T15:09:16;99848.44;;;27.94;34.28
4745;BME280;2386;42.138;24.746;2023-09-18T15:11:43;99840.41;;;27.93;34.28
4745;BME280;2386;42.138;24.746;2023-09-18T15:14:08;99851.56;;;27.93;34.19
4745;BME280;2386;42.138;24.746;2023-09-18T15:16:34;99841.91;;;27.90;34.16
4745;BME280;2386;42.138;24.746;2023-09-18T15:19:00;99845.72;;;27.86;33.85
4745;BME280;2386;42.138;24.746;2023-09-18T15:21:29;99843.13;;;27.80;34.15
4745;BME280;2386;42.138;24.746;2023-09-18T15:23:54;99854.88;;;27.86;34.03
4745;BME280;2386;42.138;24.746;2023-09-18T15:26:20;99844.75;;;27.81;34.08
4745;BME280;2386;42.138;24.746;2023-09-18T15:28:46;99845.09;;;27.80;34.55